Time;durP1;ratioP1;P1;durP2;ratioP2;P2;SDS_P1;SDS_P2;PMS_P1;PMS_P2;Temp;Humidity;BMP_temperature;BMP_pressure;BME280_temperature;BME280_humidity;BME280_pressure;Samples;Min_cycle;Max_cycle;Signal;HPM_P1;HPM_P2
2023/10/14 00:02:05;;;;;;;5.50;3.50;;;;;;;22.13;56.27;97449.59;4175453;28;20630;-83
2023/10/14 00:04:09;;;;;;;4.63;3.27;;;;;;;22.09;57.36;97441.19;4173106;28;20633;-83
2023/10/14 00:06:17;;;;;;;5.40;3.60;;;;;;;22.06;56.57;97435.47;4169340;28;20691;-84
2023/10/14 00:08:19;;;;;;;4.60;3.40;;;;;;;22.04;57.42;97435.66;4185833;28;20643;-84
2023/10/14 00:10:22;;;;;;;6.10;3.63;;;;;;;22.05;56.63;97425.84;4174389;28;20640;-84
2023/10/14 00:12:28;;;;;;;5.20;3.53;;;;;;;22.07;57.79;97432.59;4169130;28;20635;-83
2023/10/14 00:14:32;;;;;;;6.77;3.10;;;;;;;22.05;57.17;97425.84;4171331;28;20623;-84
2023/10/14 00:16:36;;;;;;;5.57;3.80;;;;;;;22.07;57.03;97424.63;4155569;28;20653;-83
2023/10/14 00:18:47;;;;;;;5.30;3.60;;;;;;;22.07;57.89;97421.97;4174018;28;20645;-83
2023/10/14 00:20:51;;;;;;;5.90;3.63;;;;;;;22.07;57.67;97421.97;4168597;28;20658;-84
2023/10/14 00:22:55;;;;;;;5.50;3.60;;;;;;;22.07;57.56;97427.28;4189207;28;20737;-84
2023/10/14 00:24:59;;;;;;;4.90;3.77;;;;;;;22.08;57.62;97425.44;4171112;28;20642;-83
2023/10/14 00:27:07;;;;;;;6.13;4.70;;;;;;;22.10;58.25;97428.72;4164701;28;20664;-83
2023/10/14 00:29:19;;;;;;;5.40;3.50;;;;;;;22.11;57.75;97433.03;4199142;28;21098;-84
2023/10/14 00:31:24;;;;;;;5.30;4.00;;;;;;;22.11;58.80;97419.75;4154881;28;20660;-83
2023/10/14 00:33:27;;;;;;;7.93;3.83;;;;;;;22.12;57.96;97416.91;4174718;28;20663;-84
2023/10/14 00:35:31;;;;;;;7.00;4.10;;;;;;;22.11;58.52;97419.75;4156678;28;20661;-83
2023/10/14 00:37:33;;;;;;;6.93;4.00;;;;;;;22.10;59.34;97415.44;4191084;28;21015;-83
2023/10/14 00:39:38;;;;;;;5.53;3.90;;;;;;;22.12;58.13;97422.22;4190024;28;20636;-86
2023/10/14 00:41:43;;;;;;;5.77;3.57;;;;;;;22.12;59.48;97413.44;4174893;28;20637;-86
2023/10/14 00:43:45;;;;;;;7.13;3.80;;;;;;;22.15;59.36;97413.06;4178436;28;20959;-86
2023/10/14 00:45:49;;;;;;;5.90;4.20;;;;;;;22.15;59.91;97405.88;4166904;28;20979;-86
2023/10/14 00:47:52;;;;;;;6.30;4.70;;;;;;;22.13;60.30;97407.09;4153132;28;20640;-87
2023/10/14 00:49:56;;;;;;;10.03;3.87;;;;;;;22.12;59.85;97402.81;4165689;28;20636;-85
2023/10/14 00:52:01;;;;;;;6.30;4.07;;;;;;;22.12;61.10;97406.28;4162955;28;20673;-86
2023/10/14 00:54:10;;;;;;;5.83;4.33;;;;;;;22.09;61.05;97400.53;4151922;28;20641;-86
2023/10/14 00:56:18;;;;;;;4.90;3.73;;;;;;;22.10;60.20;97404.81;4156645;28;23224;-85
2023/10/14 00:58:21;;;;;;;10.37;3.87;;;;;;;22.09;61.19;97396.03;4188729;28;20689;-86
2023/10/14 01:00:34;;;;;;;5.53;4.17;;;;;;;22.09;59.92;97395.22;4168394;28;20650;-86
2023/10/14 01:02:38;;;;;;;6.60;3.90;;;;;;;22.09;60.12;97396.03;4158341;28;20727;-86
2023/10/14 01:04:47;;;;;;;6.90;4.20;;;;;;;22.08;60.72;97388.25;4173704;28;21034;-87
2023/10/14 01:07:02;;;;;;;5.17;4.40;;;;;;;22.05;61.77;97383.31;4166968;28;21233;-86
2023/10/14 01:09:11;;;;;;;5.57;4.10;;;;;;;22.10;62.61;97391.53;4171407;28;20638;-85
2023/10/14 01:11:17;;;;;;;6.00;4.60;;;;;;;22.13;63.50;97391.16;4171939;28;20669;-86
2023/10/14 01:13:23;;;;;;;5.93;4.67;;;;;;;22.13;63.54;97396.47;4161160;28;21035;-86
2023/10/14 01:15:31;;;;;;;7.03;5.37;;;;;;;22.12;64.48;97398.31;4158075;28;20683;-87
2023/10/14 01:17:34;;;;;;;6.50;4.73;;;;;;;22.12;65.12;97394.84;4168770;28;20723;-85
2023/10/14 01:19:38;;;;;;;8.40;4.90;;;;;;;22.13;64.96;97389.34;4172296;28;20649;-86
2023/10/14 01:21:43;;;;;;;8.90;5.50;;;;;;;22.14;64.92;97396.25;4187830;28;21224;-86
2023/10/14 01:23:58;;;;;;;8.33;5.00;;;;;;;22.12;65.04;97395.66;4193415;28;20625;-87
2023/10/14 01:26:04;;;;;;;7.10;4.97;;;;;;;22.09;66.12;97385.41;4155092;28;21301;-86
2023/10/14 01:28:11;;;;;;;9.53;4.73;;;;;;;22.07;65.52;97376.81;4188655;28;20636;-86
2023/10/14 01:30:18;;;;;;;7.87;4.90;;;;;;;22.02;65.98;97365.09;4176204;28;21265;-86
2023/10/14 01:32:26;;;;;;;7.17;5.10;;;;;;;22.00;66.74;97373.28;4207888;28;21045;-87
2023/10/14 01:34:35;;;;;;;7.90;5.30;;;;;;;21.95;67.53;97367.72;4173824;28;21306;-86
2023/10/14 01:36:40;;;;;;;6.80;5.57;;;;;;;21.96;67.17;97379.16;4189921;28;21286;-86
2023/10/14 01:38:51;;;;;;;6.90;5.00;;;;;;;21.95;67.82;97375.69;4173320;28;20684;-86
2023/10/14 01:40:55;;;;;;;8.10;5.33;;;;;;;21.93;68.46;97382.19;4155040;28;20726;-86
2023/10/14 01:43:05;;;;;;;7.67;6.30;;;;;;;21.92;70.06;97388.53;4172460;28;20695;-85
2023/10/14 01:45:10;;;;;;;8.50;5.90;;;;;;;21.86;70.63;97383.97;4154992;28;20631;-86
2023/10/14 01:47:13;;;;;;;10.30;6.27;;;;;;;21.83;72.83;97393.16;4169425;28;20747;-86
2023/10/14 01:49:19;;;;;;;11.23;6.30;;;;;;;21.83;72.98;97385.19;4190302;28;24468;-83
2023/10/14 01:51:25;;;;;;;7.80;6.00;;;;;;;21.76;74.51;97385.34;4202229;28;20713;-83
2023/10/14 01:53:31;;;;;;;7.97;6.60;;;;;;;21.67;75.01;97384.63;4151773;28;20625;-83
2023/10/14 01:55:35;;;;;;;8.37;6.83;;;;;;;21.65;74.24;97381.34;4171765;28;21009;-83
2023/10/14 01:57:39;;;;;;;11.53;6.37;;;;;;;21.60;75.19;97386.38;4171749;28;21253;-83
2023/10/14 01:59:44;;;;;;;8.43;7.00;;;;;;;21.60;76.22;97383.72;4171630;28;21039;-84
2023/10/14 02:01:47;;;;;;;8.23;6.87;;;;;;;21.54;76.64;97384.50;4153386;28;20642;-83
2023/10/14 02:03:51;;;;;;;9.27;7.17;;;;;;;21.53;77.40;97388.19;4171303;28;21362;-83
2023/10/14 02:05:55;;;;;;;9.20;7.23;;;;;;;21.45;77.70;97390.94;4174755;28;20638;-83
2023/10/14 02:07:58;;;;;;;11.10;7.30;;;;;;;21.40;77.21;97387.19;4176773;28;21251;-83
2023/10/14 02:10:03;;;;;;;9.20;7.60;;;;;;;21.39;77.60;97375.75;4189175;28;20635;-83
2023/10/14 02:12:06;;;;;;;10.13;7.50;;;;;;;21.39;77.14;97388.19;4155853;28;20689;-83
2023/10/14 02:14:11;;;;;;;9.77;6.60;;;;;;;21.37;78.01;97383.06;4175018;28;20646;-83
2023/10/14 02:16:15;;;;;;;8.90;6.83;;;;;;;21.35;78.27;97389.59;4173585;28;21313;-83
2023/10/14 02:18:20;;;;;;;10.60;7.13;;;;;;;21.31;78.24;97386.47;4176188;28;21535;-83
2023/10/14 02:20:28;;;;;;;10.47;7.00;;;;;;;21.27;78.91;97382.56;4150034;28;21257;-84
2023/10/14 02:22:31;;;;;;;9.33;7.23;;;;;;;21.25;79.06;97388.25;4184824;28;20694;-83
2023/10/14 02:24:34;;;;;;;9.53;7.03;;;;;;;21.22;78.03;97376.16;4168285;28;20663;-83
2023/10/14 02:26:38;;;;;;;11.03;7.07;;;;;;;21.21;79.28;97369.22;4170683;28;21024;-83
2023/10/14 02:28:45;;;;;;;8.37;6.47;;;;;;;21.18;80.29;97384.69;4156854;28;20699;-83
2023/10/14 02:30:51;;;;;;;8.50;6.70;;;;;;;21.12;79.47;97374.81;4155289;28;21252;-83
2023/10/14 02:32:57;;;;;;;7.80;6.80;;;;;;;21.14;79.82;97370.13;4204988;28;20706;-83
2023/10/14 02:35:00;;;;;;;7.80;6.10;;;;;;;21.10;80.34;97382.16;4171980;28;20641;-83
2023/10/14 02:37:06;;;;;;;9.40;7.10;;;;;;;21.10;80.48;97376.84;4184548;28;20735;-84
2023/10/14 02:39:14;;;;;;;9.87;6.93;;;;;;;21.07;80.76;97377.22;4187077;28;21257;-83
2023/10/14 02:41:18;;;;;;;9.70;6.50;;;;;;;21.06;80.15;97378.22;4186450;28;20636;-83
2023/10/14 02:43:21;;;;;;;10.10;6.93;;;;;;;21.05;81.07;97374.75;4171128;28;20636;-84
2023/10/14 02:45:26;;;;;;;10.93;6.90;;;;;;;21.00;80.47;97369.19;4173959;28;20823;-84
2023/10/14 02:47:37;;;;;;;9.30;7.60;;;;;;;21.02;80.02;97363.72;4168249;28;20637;-83
2023/10/14 02:49:40;;;;;;;9.63;7.53;;;;;;;21.05;81.37;97371.25;4173944;28;20636;-83
2023/10/14 02:51:44;;;;;;;13.70;7.43;;;;;;;21.01;81.34;97368.16;4204692;28;20689;-83
2023/10/14 02:53:47;;;;;;;10.13;7.13;;;;;;;21.01;80.44;97364.72;4187073;28;20683;-83
2023/10/14 02:55:57;;;;;;;9.87;7.23;;;;;;;21.01;80.49;97343.50;4206212;28;20616;-84
2023/10/14 02:58:03;;;;;;;11.17;6.80;;;;;;;21.02;81.19;97339.84;4172754;28;20709;-87
2023/10/14 03:00:17;;;;;;;9.67;7.00;;;;;;;21.01;81.50;97354.91;4171156;28;20671;-86
2023/10/14 03:02:26;;;;;;;10.80;7.23;;;;;;;21.01;80.27;97348.78;4170332;28;20649;-87
2023/10/14 03:04:39;;;;;;;8.00;7.13;;;;;;;21.01;80.73;97354.91;4174340;28;20733;-86
2023/10/14 03:06:50;;;;;;;8.63;6.93;;;;;;;21.03;80.33;97352.06;4201943;28;20617;-85
2023/10/14 03:08:59;;;;;;;9.90;7.43;;;;;;;21.02;81.41;97361.88;4177016;28;21028;-86
2023/10/14 03:11:15;;;;;;;9.30;7.23;;;;;;;21.03;81.05;97365.34;4187912;28;20694;-86
2023/10/14 03:13:19;;;;;;;13.03;7.77;;;;;;;21.02;81.07;97364.53;4188333;28;20631;-86
2023/10/14 03:15:23;;;;;;;10.50;7.50;;;;;;;21.03;81.72;97365.34;4188086;28;21198;-86
2023/10/14 03:17:39;;;;;;;10.03;7.50;;;;;;;21.04;80.69;97367.78;4159462;28;20701;-86
2023/10/14 03:19:42;;;;;;;10.20;7.20;;;;;;;21.06;81.06;97367.59;4159445;28;20654;-86
2023/10/14 03:21:58;;;;;;;9.67;7.77;;;;;;;21.06;80.80;97357.00;4166101;28;20685;-84
2023/10/14 03:24:02;;;;;;;8.97;6.57;;;;;;;21.07;80.88;97353.34;4167675;28;20691;-86
2023/10/14 03:26:12;;;;;;;9.17;7.37;;;;;;;21.06;80.45;97355.16;4152635;28;20647;-85
2023/10/14 03:28:14;;;;;;;10.13;7.43;;;;;;;21.02;81.45;97340.66;4174480;28;21215;-85
2023/10/14 03:30:20;;;;;;;15.33;6.97;;;;;;;21.02;80.28;97345.13;4174488;28;20670;-86
2023/10/14 03:32:32;;;;;;;10.80;7.53;;;;;;;21.05;81.42;97339.44;4187802;28;21206;-86
2023/10/14 03:34:41;;;;;;;8.30;7.00;;;;;;;21.03;80.34;97341.47;4191036;28;20734;-86
2023/10/14 03:36:50;;;;;;;10.70;7.30;;;;;;;21.01;81.64;97343.50;4174898;28;20737;-86
2023/10/14 03:38:56;;;;;;;10.40;7.17;;;;;;;21.00;80.46;97347.97;4174369;28;20658;-87
2023/10/14 03:41:10;;;;;;;8.03;7.23;;;;;;;20.99;81.88;97337.56;4173707;28;21051;-86
2023/10/14 03:43:15;;;;;;;8.83;7.43;;;;;;;21.00;80.20;97336.53;4170854;28;20700;-85
2023/10/14 03:45:20;;;;;;;9.47;7.23;;;;;;;21.04;80.24;97329.84;4173041;28;20656;-86
2023/10/14 03:47:34;;;;;;;8.13;7.17;;;;;;;21.06;81.42;97335.78;4205041;28;20643;-87
2023/10/14 03:49:38;;;;;;;9.30;7.00;;;;;;;21.03;80.02;97330.84;4171794;28;21255;-86
2023/10/14 03:51:42;;;;;;;9.00;6.97;;;;;;;21.05;79.80;97334.13;4174146;28;21244;-86
2023/10/14 03:53:47;;;;;;;8.80;7.47;;;;;;;21.07;80.07;97332.94;4190661;28;20687;-86
2023/10/14 03:55:51;;;;;;;9.80;8.30;;;;;;;21.05;80.00;97327.00;4158728;28;20631;-86
2023/10/14 03:57:58;;;;;;;9.90;7.33;;;;;;;21.06;79.88;97318.03;4176493;28;20641;-86
2023/10/14 04:00:09;;;;;;;8.93;7.63;;;;;;;21.07;79.44;97324.16;4154361;28;20812;-86
2023/10/14 04:02:19;;;;;;;8.97;7.03;;;;;;;21.08;79.85;97312.53;4169462;28;21097;-86
2023/10/14 04:04:23;;;;;;;8.87;6.97;;;;;;;21.09;80.41;97312.34;4174121;28;20614;-87
2023/10/14 04:06:27;;;;;;;9.63;6.83;;;;;;;21.12;80.10;97308.50;4189124;28;20645;-86
2023/10/14 04:08:31;;;;;;;8.63;6.73;;;;;;;21.14;80.42;97306.47;4206894;28;20643;-83
2023/10/14 04:10:43;;;;;;;10.43;7.80;;;;;;;21.12;80.38;97303.19;4172124;28;20641;-84
2023/10/14 04:12:53;;;;;;;7.37;6.67;;;;;;;21.13;79.87;97305.66;4172979;28;20746;-84
2023/10/14 04:15:05;;;;;;;8.50;7.53;;;;;;;21.12;80.43;97298.72;4158925;28;21011;-83
2023/10/14 04:17:19;;;;;;;9.50;7.33;;;;;;;21.12;80.89;97305.84;4171405;28;20673;-84
2023/10/14 04:19:27;;;;;;;11.70;7.10;;;;;;;21.16;80.02;97329.16;4185866;28;20758;-83
2023/10/14 04:21:35;;;;;;;9.67;7.83;;;;;;;21.18;81.16;97350.19;4198849;28;20634;-83
2023/10/14 04:23:55;;;;;;;12.97;8.67;;;;;;;21.20;85.47;97361.44;4189262;28;20630;-83
2023/10/14 04:26:03;;;;;;;19.13;9.67;;;;;;;21.08;90.56;97405.38;4170368;28;21220;-83
2023/10/14 04:28:25;;;;;;;12.90;9.60;;;;;;;20.86;91.03;97432.84;4174848;28;20706;-82
2023/10/14 04:30:32;;;;;;;17.03;8.73;;;;;;;20.60;92.05;97423.69;4149891;28;20728;-83
2023/10/14 04:32:42;;;;;;;10.30;7.20;;;;;;;20.45;94.85;97409.63;4170488;28;20641;-83
2023/10/14 04:34:46;;;;;;;11.40;6.33;;;;;;;20.27;92.99;97422.38;4188496;28;20638;-83
2023/10/14 04:36:56;;;;;;;10.97;4.80;;;;;;;20.23;93.75;97412.31;4168362;28;20973;-82
2023/10/14 04:39:07;;;;;;;5.50;4.50;;;;;;;20.12;91.11;97410.13;4170452;28;20648;-83
2023/10/14 04:41:14;;;;;;;6.40;3.67;;;;;;;19.91;92.91;97415.28;4151698;28;20634;-83
2023/10/14 04:43:49;;;;;;;8.53;4.37;;;;;;;19.78;94.27;97422.94;4172997;28;21047;-83
2023/10/14 04:45:45;;;;;;;5.67;3.90;;;;;;;19.66;94.77;97412.97;4171856;28;20684;-83
2023/10/14 04:47:50;;;;;;;8.73;3.93;;;;;;;19.51;95.27;97412.88;4172943;28;20669;-82
2023/10/14 04:49:53;;;;;;;9.63;4.47;;;;;;;19.38;95.57;97430.38;4160966;28;21065;-82
2023/10/14 04:51:58;;;;;;;5.83;3.93;;;;;;;19.29;96.20;97428.78;4204937;28;20697;-82
2023/10/14 04:54:02;;;;;;;5.50;4.10;;;;;;;19.17;97.63;97430.16;4205998;28;20624;-83
2023/10/14 04:56:08;;;;;;;9.03;4.80;;;;;;;19.12;97.61;97426.38;4171785;28;21334;-82
2023/10/14 04:58:12;;;;;;;8.47;4.17;;;;;;;19.09;98.60;97429.38;4177921;28;20656;-82
2023/10/14 05:00:32;;;;;;;7.43;4.37;;;;;;;19.02;98.79;97437.16;4187205;28;20728;-81
2023/10/14 05:02:38;;;;;;;7.40;3.63;;;;;;;18.96;98.50;97421.16;4172932;28;20732;-82
2023/10/14 05:04:41;;;;;;;8.00;4.43;;;;;;;18.91;99.55;97436.69;4185074;28;20684;-81
2023/10/14 05:06:47;;;;;;;8.63;4.13;;;;;;;18.88;99.15;97444.13;4178631;28;20639;-81
2023/10/14 05:08:54;;;;;;;6.43;4.40;;;;;;;18.85;100.00;97439.19;4161632;28;20683;-81
2023/10/14 05:11:00;;;;;;;6.73;4.77;;;;;;;18.80;99.68;97442.34;4177813;28;21516;-81
2023/10/14 05:13:09;;;;;;;7.10;4.17;;;;;;;18.78;99.94;97457.56;4207440;28;20641;-81
2023/10/14 05:15:20;;;;;;;10.13;4.53;;;;;;;18.73;99.54;97459.88;4204537;28;20637;-81
2023/10/14 05:17:27;;;;;;;8.13;5.27;;;;;;;18.71;100.00;97453.13;4175021;28;20628;-81
2023/10/14 05:19:41;;;;;;;6.33;4.73;;;;;;;18.69;100.00;97448.00;4205036;28;20644;-81
2023/10/14 05:21:44;;;;;;;6.70;4.23;;;;;;;18.71;100.00;97447.84;4179072;28;20698;-82
2023/10/14 05:23:48;;;;;;;5.67;3.67;;;;;;;18.71;99.95;97445.19;4166341;28;20742;-82
2023/10/14 05:25:56;;;;;;;6.80;4.10;;;;;;;18.72;100.00;97449.47;4174935;28;21387;-82
2023/10/14 05:28:04;;;;;;;5.90;4.30;;;;;;;18.73;100.00;97465.16;4174732;28;20650;-82
2023/10/14 05:30:08;;;;;;;7.00;4.67;;;;;;;18.72;100.00;97463.53;4207216;28;20661;-82
2023/10/14 05:32:15;;;;;;;5.53;4.43;;;;;;;18.74;100.00;97469.47;4171513;28;20627;-82
2023/10/14 05:34:21;;;;;;;9.10;4.77;;;;;;;18.77;100.00;97470.94;4157860;28;20641;-82
2023/10/14 05:36:25;;;;;;;6.43;4.50;;;;;;;18.77;100.00;97477.03;4175301;28;21412;-83
2023/10/14 05:38:29;;;;;;;8.57;4.30;;;;;;;18.78;100.00;97469.94;4157319;28;20721;-83
2023/10/14 05:40:31;;;;;;;7.07;4.30;;;;;;;18.79;100.00;97469.75;4154210;28;21583;-83
2023/10/14 05:42:35;;;;;;;6.90;5.10;;;;;;;18.82;100.00;97480.00;4175452;28;20643;-83
2023/10/14 05:44:46;;;;;;;6.63;4.37;;;;;;;18.81;100.00;97480.16;4157672;28;20764;-83
2023/10/14 05:46:49;;;;;;;8.97;5.10;;;;;;;18.83;100.00;97484.28;4176459;28;20628;-83
2023/10/14 05:48:54;;;;;;;9.00;5.20;;;;;;;18.83;100.00;97489.56;4173350;28;20636;-83
2023/10/14 05:50:58;;;;;;;7.83;4.23;;;;;;;18.85;100.00;97498.16;4168146;28;21214;-83
2023/10/14 05:53:02;;;;;;;9.50;4.77;;;;;;;18.88;100.00;97508.38;4174570;28;21311;-83
2023/10/14 05:55:05;;;;;;;8.80;4.60;;;;;;;18.89;100.00;97507.41;4173480;28;20672;-83
2023/10/14 05:57:10;;;;;;;9.57;4.50;;;;;;;18.90;100.00;97514.34;4166381;28;20631;-83
2023/10/14 05:59:15;;;;;;;7.77;4.50;;;;;;;18.92;100.00;97504.41;4174642;28;20664;-83
2023/10/14 06:01:19;;;;;;;9.20;5.20;;;;;;;18.93;99.23;97506.09;4173523;28;20648;-83
2023/10/14 06:03:21;;;;;;;8.53;4.60;;;;;;;18.92;99.45;97507.06;4203272;28;20663;-82
2023/10/14 06:05:26;;;;;;;7.40;4.43;;;;;;;18.93;99.53;97509.53;4173772;28;20632;-82
2023/10/14 06:07:34;;;;;;;8.57;4.53;;;;;;;18.96;99.17;97513.66;4186480;28;21055;-83
2023/10/14 06:09:37;;;;;;;6.30;4.30;;;;;;;18.98;99.66;97519.59;4177237;28;20676;-83
2023/10/14 06:11:40;;;;;;;7.20;4.10;;;;;;;18.96;99.32;97524.25;4190825;28;20640;-83
2023/10/14 06:13:44;;;;;;;6.93;4.40;;;;;;;18.98;98.07;97525.69;4188566;28;20630;-82
2023/10/14 06:15:47;;;;;;;5.77;4.43;;;;;;;19.01;98.50;97521.91;4159618;28;21272;-84
2023/10/14 06:17:51;;;;;;;6.73;4.50;;;;;;;19.03;98.97;97527.88;4175328;28;20765;-83
2023/10/14 06:19:54;;;;;;;5.77;4.33;;;;;;;19.04;98.17;97533.00;4168099;28;20649;-82
2023/10/14 06:21:59;;;;;;;6.77;4.07;;;;;;;19.00;98.05;97531.66;4172022;28;21005;-82
2023/10/14 06:24:04;;;;;;;5.00;3.90;;;;;;;19.02;98.83;97539.47;4187069;28;20632;-82
2023/10/14 06:26:09;;;;;;;4.90;4.00;;;;;;;19.02;99.18;97539.47;4174591;28;21009;-83
2023/10/14 06:28:14;;;;;;;7.30;5.10;;;;;;;19.06;98.75;97546.03;4170832;28;20688;-85
2023/10/14 06:30:21;;;;;;;5.40;3.80;;;;;;;19.07;98.01;97550.34;4172000;28;20658;-85
2023/10/14 06:32:25;;;;;;;6.37;4.53;;;;;;;19.15;98.01;97545.84;4165506;28;20665;-85
2023/10/14 06:34:31;;;;;;;6.07;4.13;;;;;;;19.27;97.26;97541.81;4173841;28;20649;-85
2023/10/14 06:36:34;;;;;;;6.67;4.20;;;;;;;19.27;97.06;97546.31;4169276;28;20639;-85
2023/10/14 06:38:44;;;;;;;7.77;4.07;;;;;;;19.26;97.07;97539.34;4156115;28;20640;-85
2023/10/14 06:40:52;;;;;;;6.70;4.27;;;;;;;19.23;97.39;97545.81;4172343;28;21284;-86
2023/10/14 06:42:56;;;;;;;9.03;4.00;;;;;;;19.26;97.10;97553.41;4174389;28;20640;-85
2023/10/14 06:44:58;;;;;;;5.33;3.80;;;;;;;19.26;96.08;97547.28;4208468;28;21263;-86
2023/10/14 06:47:03;;;;;;;4.97;3.27;;;;;;;19.27;96.24;97557.69;4203842;28;21290;-85
2023/10/14 06:49:13;;;;;;;4.80;3.50;;;;;;;19.29;94.97;97555.72;4188528;28;20625;-86
2023/10/14 06:51:18;;;;;;;3.90;3.10;;;;;;;19.28;95.29;97554.06;4170180;28;20626;-86
2023/10/14 06:53:21;;;;;;;4.00;3.10;;;;;;;19.31;94.81;97558.19;4168092;28;20728;-86
2023/10/14 06:55:26;;;;;;;5.67;3.40;;;;;;;19.31;95.41;97563.50;4166989;28;21009;-85
2023/10/14 06:57:30;;;;;;;4.80;3.60;;;;;;;19.30;93.95;97561.81;4173060;28;20641;-86
2023/10/14 06:59:33;;;;;;;4.27;3.00;;;;;;;19.28;94.02;97575.22;4206079;28;21080;-85
2023/10/14 07:01:37;;;;;;;4.83;2.93;;;;;;;19.25;94.54;97575.56;4176372;28;20684;-86
2023/10/14 07:03:41;;;;;;;5.00;2.80;;;;;;;19.26;93.61;97579.88;4174895;28;20647;-86
2023/10/14 07:05:48;;;;;;;4.37;3.37;;;;;;;19.26;94.91;97581.66;4166323;28;21194;-87
2023/10/14 07:07:51;;;;;;;4.93;3.03;;;;;;;19.27;94.88;97580.69;4174055;28;20625;-86
2023/10/14 07:09:54;;;;;;;6.10;2.80;;;;;;;19.25;93.85;97582.69;4174865;28;20633;-87
2023/10/14 07:11:59;;;;;;;4.07;2.87;;;;;;;19.22;93.75;97585.66;4174787;28;20639;-86
2023/10/14 07:14:03;;;;;;;6.13;2.90;;;;;;;19.24;94.84;97586.31;4152422;28;21179;-87
2023/10/14 07:16:07;;;;;;;6.27;2.77;;;;;;;19.28;94.21;97582.34;4174082;28;20631;-86
2023/10/14 07:18:13;;;;;;;4.73;2.67;;;;;;;19.33;95.15;97590.59;4193367;28;20624;-87
2023/10/14 07:20:15;;;;;;;4.23;2.60;;;;;;;19.38;94.01;97584.63;4170123;28;20670;-86
2023/10/14 07:22:20;;;;;;;7.00;3.83;;;;;;;19.43;93.28;97590.19;4180280;28;20650;-87
2023/10/14 07:24:24;;;;;;;4.40;2.60;;;;;;;19.53;94.61;97601.41;4167179;28;20666;-86
2023/10/14 07:26:30;;;;;;;3.43;2.60;;;;;;;19.61;94.79;97601.38;4177725;28;20741;-90
2023/10/14 07:28:35;;;;;;;5.47;2.40;;;;;;;19.67;94.41;97605.16;4178208;28;20624;-92
2023/10/14 07:30:38;;;;;;;3.67;2.37;;;;;;;19.74;95.02;97611.41;4177757;28;20679;-93
2023/10/14 07:32:44;;;;;;;3.27;2.57;;;;;;;19.78;92.25;97610.88;4178566;28;20629;-89
2023/10/14 07:34:52;;;;;;;3.13;2.03;;;;;;;19.78;92.20;97615.38;4209511;28;20694;-91
2023/10/14 07:36:56;;;;;;;6.47;2.67;;;;;;;19.83;93.83;97609.38;4173715;28;20625;-91
2023/10/14 07:39:02;;;;;;;5.90;2.70;;;;;;;19.87;93.38;97610.72;4174761;28;21173;-86
2023/10/14 07:41:06;;;;;;;3.33;2.00;;;;;;;19.92;93.33;97618.13;4206633;28;20651;-85
2023/10/14 07:43:11;;;;;;;3.13;2.20;;;;;;;19.98;91.83;97620.06;4189261;28;20701;-85
2023/10/14 07:45:15;;;;;;;2.90;2.23;;;;;;;20.01;92.44;97615.28;4177578;28;21101;-86
2023/10/14 07:47:18;;;;;;;4.87;2.83;;;;;;;20.08;91.00;97610.91;4175598;28;20642;-85
2023/10/14 07:49:21;;;;;;;6.90;2.80;;;;;;;20.32;92.30;97611.56;4193338;28;21205;-86
2023/10/14 07:51:25;;;;;;;3.83;2.13;;;;;;;20.80;91.40;97616.53;4172753;28;20640;-84
2023/10/14 07:53:32;;;;;;;5.20;2.90;;;;;;;21.24;89.76;97625.41;4155898;28;20634;-83
2023/10/14 07:55:38;;;;;;;3.77;2.57;;;;;;;21.56;89.21;97629.38;4175838;28;20618;-83
2023/10/14 07:57:46;;;;;;;5.30;2.27;;;;;;;21.65;88.92;97625.63;4186856;28;20633;-83
2023/10/14 07:59:50;;;;;;;4.33;2.60;;;;;;;21.76;86.41;97632.31;4172341;28;20636;-83
2023/10/14 08:01:56;;;;;;;2.80;2.00;;;;;;;22.08;89.08;97638.00;4150005;28;20668;-85
2023/10/14 08:03:59;;;;;;;2.33;1.80;;;;;;;22.40;87.48;97635.75;4169787;28;21230;-83
2023/10/14 08:06:05;;;;;;;4.30;2.40;;;;;;;22.61;85.03;97635.75;4168240;28;20674;-83
2023/10/14 08:08:10;;;;;;;4.97;2.37;;;;;;;22.79;82.60;97631.63;4174945;28;20618;-83
2023/10/14 08:10:19;;;;;;;4.07;2.10;;;;;;;22.73;82.56;97635.03;4171912;28;21251;-83
2023/10/14 08:12:22;;;;;;;3.37;2.10;;;;;;;22.64;85.21;97641.50;4168465;28;20663;-84
2023/10/14 08:14:30;;;;;;;2.57;1.80;;;;;;;22.43;84.02;97630.03;4156013;28;20617;-85
2023/10/14 08:16:34;;;;;;;4.10;1.90;;;;;;;22.22;84.41;97634.53;4157382;28;20639;-84
2023/10/14 08:18:41;;;;;;;3.77;1.93;;;;;;;22.01;84.73;97639.75;4173205;28;20631;-85
2023/10/14 08:20:45;;;;;;;6.03;2.10;;;;;;;21.86;85.56;97639.78;4153800;28;20690;-84
2023/10/14 08:22:48;;;;;;;2.97;2.00;;;;;;;21.76;85.20;97639.25;4176242;28;20621;-84
2023/10/14 08:24:52;;;;;;;4.93;1.80;;;;;;;21.69;86.61;97639.34;4159441;28;20629;-84
2023/10/14 08:26:55;;;;;;;3.43;1.83;;;;;;;21.55;85.63;97635.69;4188061;28;21227;-84
2023/10/14 08:29:01;;;;;;;4.63;1.90;;;;;;;21.46;87.10;97636.78;4205940;28;20667;-84
2023/10/14 08:31:06;;;;;;;3.77;2.00;;;;;;;21.30;86.46;97633.44;4158292;28;20654;-85
2023/10/14 08:33:09;;;;;;;2.53;1.93;;;;;;;21.23;86.83;97637.00;4185218;28;20672;-84
2023/10/14 08:35:17;;;;;;;3.07;1.70;;;;;;;21.12;87.25;97643.56;4175064;28;21483;-84
2023/10/14 08:37:21;;;;;;;2.80;1.63;;;;;;;21.07;87.49;97645.94;4186083;28;20740;-84
2023/10/14 08:39:24;;;;;;;5.00;1.80;;;;;;;21.04;87.11;97641.00;4159449;28;20707;-84
2023/10/14 08:41:28;;;;;;;2.20;1.50;;;;;;;20.99;86.88;97643.38;4152934;28;20656;-85
2023/10/14 08:43:35;;;;;;;4.03;1.97;;;;;;;20.93;88.05;97632.69;4207423;28;20630;-84
2023/10/14 08:45:41;;;;;;;3.43;1.77;;;;;;;20.90;88.20;97638.34;4203109;28;21498;-84
2023/10/14 08:47:46;;;;;;;3.93;2.00;;;;;;;20.85;87.90;97636.22;4156991;28;20623;-88
2023/10/14 08:49:51;;;;;;;2.43;1.60;;;;;;;20.79;87.48;97632.63;4174154;28;21318;-90
2023/10/14 08:51:58;;;;;;;5.63;1.60;;;;;;;20.74;88.71;97630.50;4173469;28;20620;-92
2023/10/14 08:54:06;;;;;;;5.00;1.50;;;;;;;20.70;90.04;97647.75;4174147;28;20720;-88
2023/10/14 08:56:09;;;;;;;3.33;2.00;;;;;;;20.64;88.46;97647.63;4174501;28;20637;-91
2023/10/14 08:58:13;;;;;;;3.60;1.73;;;;;;;20.56;90.60;97639.75;4178197;28;20625;-92
2023/10/14 09:00:23;;;;;;;16.83;1.93;;;;;;;20.50;90.24;97662.47;4192071;28;20727;-92
2023/10/14 09:02:27;;;;;;;2.27;1.47;;;;;;;20.44;92.03;97660.50;4175524;28;21084;-91
2023/10/14 09:04:31;;;;;;;4.70;1.53;;;;;;;20.26;92.58;97672.41;4172525;28;20691;-89
2023/10/14 09:06:34;;;;;;;2.97;1.43;;;;;;;20.11;94.02;97673.31;4151541;28;20638;-91
2023/10/14 09:08:39;;;;;;;2.80;1.33;;;;;;;20.00;95.03;97671.06;4150975;28;20668;-89
2023/10/14 09:10:43;;;;;;;2.23;1.40;;;;;;;19.79;96.32;97665.50;4155786;28;21016;-88
2023/10/14 09:12:57;;;;;;;2.73;1.30;;;;;;;19.66;97.43;97675.78;4173923;28;20643;-88
2023/10/14 09:15:00;;;;;;;2.93;1.30;;;;;;;19.54;98.49;97676.31;4174578;28;20657;-86
2023/10/14 09:17:07;;;;;;;1.53;0.83;;;;;;;19.43;98.04;97689.91;4171281;28;20636;-87
2023/10/14 09:19:12;;;;;;;1.43;0.80;;;;;;;19.31;97.66;97693.09;4173266;28;20641;-87
2023/10/14 09:21:15;;;;;;;1.10;0.60;;;;;;;19.14;98.40;97689.66;4169756;28;20723;-88
2023/10/14 09:23:19;;;;;;;1.40;0.60;;;;;;;19.06;98.76;97709.97;4173082;28;20662;-89
2023/10/14 09:25:24;;;;;;;2.90;1.00;;;;;;;18.95;99.33;97697.88;4169675;28;20653;-88
2023/10/14 09:27:30;;;;;;;2.23;0.70;;;;;;;18.93;99.39;97712.28;4168067;28;20765;-88
2023/10/14 09:29:36;;;;;;;1.20;0.60;;;;;;;18.94;99.45;97708.63;4171718;28;21245;-87
2023/10/14 09:31:44;;;;;;;2.40;0.80;;;;;;;18.86;99.21;97708.63;4173736;28;20734;-88
2023/10/14 09:33:52;;;;;;;1.80;0.73;;;;;;;18.86;100.00;97723.66;4178413;28;20659;-88
2023/10/14 09:35:58;;;;;;;2.00;0.80;;;;;;;18.85;100.00;97724.66;4174427;28;20619;-88
2023/10/14 09:38:04;;;;;;;1.50;0.80;;;;;;;18.86;100.00;97727.13;4169888;28;20732;-85
2023/10/14 09:40:13;;;;;;;3.73;0.93;;;;;;;18.84;100.00;97728.25;4210238;28;21341;-89
2023/10/14 09:42:18;;;;;;;1.47;0.73;;;;;;;18.84;100.00;97738.84;4207444;28;21053;-89
2023/10/14 09:44:22;;;;;;;1.20;0.60;;;;;;;18.84;100.00;97737.03;4173713;28;20899;-89
2023/10/14 09:46:27;;;;;;;1.87;0.90;;;;;;;18.85;100.00;97746.59;4169530;28;20658;-90
2023/10/14 09:48:34;;;;;;;1.50;0.90;;;;;;;18.89;100.00;97747.94;4170851;28;20643;-88
2023/10/14 09:50:38;;;;;;;1.60;0.90;;;;;;;18.91;100.00;97746.78;4168365;28;20632;-88
2023/10/14 09:52:42;;;;;;;2.70;0.60;;;;;;;18.91;100.00;97745.94;4171314;28;21231;-89